Time;durP1;ratioP1;P1;durP2;ratioP2;P2;SDS_P1;SDS_P2;PMS_P1;PMS_P2;Temp;Humidity;BMP_temperature;BMP_pressure;BME280_temperature;BME280_humidity;BME280_pressure;Samples;Min_cycle;Max_cycle;Signal;HPM_P1;HPM_P2
2021/03/12 00:03:07;;;;;;;1.90;0.53;;;8.70;74.30;;;;;;6336734;22;20006;-76
2021/03/12 00:17:04;;;;;;;;;;;;;;;;;;;;;
2021/03/12 00:37:59;;;;;;;;;;;;;;;;;;;;;
2021/03/12 00:52:53;;;;;;;1.60;0.30;;;6.10;91.10;;;;;;5987221;24;20008;-77
2021/03/12 00:56:06;;;;;;;2.50;0.30;;;6.10;91.20;;;;;;5927502;23;20046;-76
2021/03/12 00:59:53;;;;;;;;;;;;;;;;;;;;;
2021/03/12 01:06:42;;;;;;;;;;;;;;;;;;;;;
2021/03/12 01:21:44;;;;;;;2.27;0.37;;;6.00;91.00;;;;;;5888135;24;20041;-76
2021/03/12 01:31:53;;;;;;;;;;;;;;;;;;;;;
2021/03/12 01:34:44;;;;;;;1.70;0.30;;;6.00;90.40;;;;;;5842574;24;20093;-77
2021/03/12 02:08:59;;;;;;;2.73;0.80;;;6.30;88.10;;;;;;5945282;24;20460;-75
2021/03/12 02:12:11;;;;;;;3.50;0.50;;;6.40;88.10;;;;;;5900506;24;20065;-74
2021/03/12 02:43:14;;;;;;;;;;;;;;;;;;;;;
2021/03/12 03:18:20;;;;;;;3.53;0.63;;;6.40;82.70;;;;;;5725659;25;20062;-75
2021/03/12 03:21:54;;;;;;;;;;;;;;;;;;;;;
2021/03/12 04:15:32;;;;;;;;;;;;;;;;;;;;;
2021/03/12 04:25:25;;;;;;;5.47;0.53;;;6.80;73.90;;;;;;6044006;23;20011;-75
2021/03/12 04:39:39;;;;;;;;;;;;;;;;;;;;;
2021/03/12 04:53:30;;;;;;;4.10;0.57;;;6.70;73.50;;;;;;5953298;24;20384;-76
2021/03/12 05:08:12;;;;;;;;;;;;;;;;;;;;;
2021/03/12 05:14:31;;;;;;;5.37;0.70;;;6.70;73.40;;;;;;5896975;24;20028;-76
2021/03/12 05:17:46;;;;;;;7.07;0.90;;;6.70;73.20;;;;;;5980613;24;20084;-76
2021/03/12 05:21:14;;;;;;;;;;;;;;;;;;;;;
2021/03/12 05:24:33;;;;;;;;;;;;;;;;;;;;;
2021/03/12 05:27:25;;;;;;;3.97;0.80;;;6.50;74.30;;;;;;6059720;23;20078;-76
2021/03/12 05:30:17;;;;;;;4.22;0.45;;;6.50;74.90;;;;;;6041391;23;20093;-76
2021/03/12 05:40:36;;;;;;;3.23;0.50;;;6.50;74.90;;;;;;6116997;22;20450;-75
2021/03/12 05:43:50;;;;;;;2.50;0.60;;;6.50;75.20;;;;;;6248803;22;20083;-75
2021/03/12 05:46:29;;;;;;;4.07;0.60;;;6.50;75.20;;;;;;6249246;22;20506;-75
2021/03/12 05:49:01;;;;;;;3.03;0.40;;;6.40;75.60;;;;;;6249935;22;20087;-75
2021/03/12 05:51:31;;;;;;;4.72;0.60;;;6.40;76.00;;;;;;6249370;22;20008;-75
2021/03/12 05:54:22;;;;;;;4.27;0.47;;;6.40;76.00;;;;;;6250128;22;20016;-75
2021/03/12 06:03:45;;;;;;;6.73;0.97;;;6.50;76.30;;;;;;6251682;22;20007;-76
2021/03/12 06:12:55;;;;;;;6.00;0.83;;;6.50;75.90;;;;;;6095942;23;20006;-75
2021/03/12 06:15:32;;;;;;;3.70;0.53;;;6.50;75.90;;;;;;6123829;23;20021;-75
2021/03/12 06:17:57;;;;;;;4.07;0.40;;;6.50;75.80;;;;;;6098621;23;20038;-74
2021/03/12 06:20:23;;;;;;;2.47;0.77;;;6.60;75.10;;;;;;6122920;23;20006;-76
2021/03/12 06:22:58;;;;;;;5.37;0.67;;;6.70;74.90;;;;;;6098650;23;20040;-75
2021/03/12 06:25:27;;;;;;;1.50;0.40;;;6.80;74.80;;;;;;6122977;23;20006;-75
2021/03/12 06:27:53;;;;;;;4.70;0.50;;;6.80;74.90;;;;;;6123315;23;20449;-75
2021/03/12 06:30:21;;;;;;;6.17;0.70;;;6.80;75.00;;;;;;6099293;23;20002;-76
2021/03/12 06:32:49;;;;;;;2.10;0.40;;;6.80;75.20;;;;;;6098774;23;20472;-76
2021/03/12 06:35:23;;;;;;;5.53;0.47;;;6.80;75.10;;;;;;6098738;23;20449;-75
2021/03/12 06:37:51;;;;;;;1.03;0.20;;;6.90;74.90;;;;;;6099181;23;20106;-75
2021/03/12 06:40:26;;;;;;;1.60;0.40;;;6.80;74.90;;;;;;6099178;23;20054;-76
2021/03/12 06:43:11;;;;;;;1.40;0.50;;;6.80;74.90;;;;;;6099094;23;19998;-75
2021/03/12 06:45:42;;;;;;;5.93;0.40;;;6.80;74.60;;;;;;6098396;23;20064;-75
2021/03/12 06:48:24;;;;;;;4.13;0.80;;;6.80;74.60;;;;;;6183508;22;20011;-75
2021/03/12 06:50:52;;;;;;;2.20;0.50;;;6.80;74.70;;;;;;6249235;22;20007;-75
2021/03/12 06:53:30;;;;;;;2.13;0.50;;;6.90;74.30;;;;;;6276515;22;20415;-75
2021/03/12 06:56:20;;;;;;;2.93;0.53;;;6.90;73.80;;;;;;6249654;22;20007;-76
2021/03/12 06:59:03;;;;;;;5.30;0.60;;;6.90;73.40;;;;;;6246780;22;20001;-76
2021/03/12 07:01:29;;;;;;;2.73;0.60;;;7.00;72.70;;;;;;6249108;22;20035;-77
2021/03/12 07:04:12;;;;;;;3.40;0.63;;;6.90;72.60;;;;;;6276671;22;20026;-76
2021/03/12 07:06:50;;;;;;;4.80;1.03;;;7.00;72.30;;;;;;6243666;23;20015;-76
2021/03/12 07:09:17;;;;;;;2.90;0.50;;;7.00;72.40;;;;;;6244119;23;20362;-76
2021/03/12 07:11:43;;;;;;;3.33;0.63;;;7.00;72.60;;;;;;6245164;22;20007;-76
2021/03/12 07:14:09;;;;;;;5.03;1.00;;;7.10;72.70;;;;;;6244066;23;20008;-74
2021/03/12 07:16:35;;;;;;;2.80;0.70;;;7.00;73.00;;;;;;6243358;23;19996;-76
2021/03/12 07:19:00;;;;;;;3.50;1.00;;;7.00;73.50;;;;;;6244173;23;20313;-76
2021/03/12 07:21:29;;;;;;;4.70;0.90;;;6.90;73.40;;;;;;6243509;23;20075;-77
2021/03/12 07:24:03;;;;;;;3.37;0.70;;;6.90;73.90;;;;;;6245766;22;20004;-76
2021/03/12 07:26:48;;;;;;;4.80;0.73;;;6.90;74.20;;;;;;6244743;22;20050;-76
2021/03/12 07:29:17;;;;;;;5.40;0.60;;;7.00;73.90;;;;;;6245777;22;20023;-76
2021/03/12 07:31:44;;;;;;;4.07;0.57;;;7.00;73.90;;;;;;6243628;23;20323;-76
2021/03/12 07:34:13;;;;;;;4.10;0.70;;;7.10;73.60;;;;;;6245534;22;20005;-77
2021/03/12 07:36:45;;;;;;;4.53;0.80;;;7.10;73.60;;;;;;6243778;23;20008;-77
2021/03/12 07:39:20;;;;;;;4.75;0.73;;;7.10;74.00;;;;;;6245788;22;19992;-76
2021/03/12 07:41:46;;;;;;;4.43;1.13;;;7.20;73.60;;;;;;6243725;23;20497;-76
2021/03/12 07:44:14;;;;;;;3.40;0.50;;;7.20;74.30;;;;;;6245811;22;19996;-76
2021/03/12 07:46:40;;;;;;;5.23;0.57;;;7.10;73.20;;;;;;6243198;23;20028;-75
2021/03/12 07:49:33;;;;;;;6.20;0.70;;;7.20;73.20;;;;;;6244040;23;20377;-76
2021/03/12 07:51:59;;;;;;;;;;;7.10;73.30;;;;;;6246083;22;20000;-76
2021/03/12 07:54:37;;;;;;;6.60;0.70;;;7.10;73.70;;;;;;6244045;23;20262;-76
2021/03/12 07:57:04;;;;;;;4.30;1.00;;;7.20;73.10;;;;;;6243978;23;20077;-77
2021/03/12 07:59:47;;;;;;;6.73;1.23;;;7.30;73.00;;;;;;6243328;23;20015;-77
2021/03/12 08:02:14;;;;;;;10.63;1.73;;;7.30;72.50;;;;;;6243601;23;20443;-75
2021/03/12 08:04:40;;;;;;;5.17;1.20;;;7.30;72.60;;;;;;6244751;22;20498;-75
2021/03/12 08:07:21;;;;;;;4.73;0.87;;;7.40;71.30;;;;;;6248981;22;20000;-75
2021/03/12 08:09:54;;;;;;;7.10;1.30;;;7.40;72.20;;;;;;6275368;22;20495;-75
2021/03/12 08:12:40;;;;;;;7.80;1.03;;;7.40;72.10;;;;;;6248870;22;20376;-75
2021/03/12 08:15:25;;;;;;;1.93;0.60;;;7.30;72.10;;;;;;6248592;22;20014;-74
2021/03/12 08:17:57;;;;;;;1.60;0.33;;;7.40;72.30;;;;;;6275293;22;20004;-76
2021/03/12 08:20:36;;;;;;;2.88;0.40;;;7.40;71.80;;;;;;6276163;22;20423;-76
2021/03/12 08:23:03;;;;;;;2.77;0.73;;;7.40;72.00;;;;;;6277795;22;19996;-76
2021/03/12 08:25:32;;;;;;;6.60;1.00;;;7.50;72.30;;;;;;6277647;22;20120;-79
2021/03/12 08:28:20;;;;;;;2.27;0.40;;;7.60;72.30;;;;;;6277573;22;20000;-76
2021/03/12 08:30:49;;;;;;;1.90;0.50;;;7.70;72.20;;;;;;6223142;22;20369;-76
2021/03/12 08:33:20;;;;;;;5.43;0.60;;;7.90;71.50;;;;;;6277966;22;20453;-77
2021/03/12 08:35:47;;;;;;;4.30;0.47;;;8.00;71.30;;;;;;6249727;22;19999;-75
2021/03/12 08:38:25;;;;;;;4.67;0.70;;;8.10;71.50;;;;;;6250520;22;19996;-76
2021/03/12 08:40:55;;;;;;;3.13;0.80;;;8.10;71.60;;;;;;6250502;22;20027;-77
2021/03/12 08:43:24;;;;;;;3.90;0.50;;;8.00;71.90;;;;;;6277834;22;20449;-77
2021/03/12 08:45:55;;;;;;;4.20;0.70;;;8.10;72.50;;;;;;6250706;22;20232;-75
2021/03/12 08:48:31;;;;;;;3.27;0.43;;;8.10;72.20;;;;;;6277445;22;20000;-75
2021/03/12 08:50:57;;;;;;;7.00;0.80;;;8.00;72.10;;;;;;6276553;22;20007;-76
2021/03/12 08:53:26;;;;;;;3.43;0.80;;;8.00;72.60;;;;;;6251537;22;20007;-75
2021/03/12 08:55:54;;;;;;;3.63;0.60;;;7.90;73.20;;;;;;6250697;22;20000;-76
2021/03/12 08:58:22;;;;;;;4.60;0.80;;;7.90;73.70;;;;;;6250188;22;20032;-76
2021/03/12 09:00:54;;;;;;;1.43;0.40;;;7.80;73.80;;;;;;6249899;22;20027;-76
2021/03/12 09:03:22;;;;;;;4.13;0.70;;;7.80;73.80;;;;;;6275309;22;20288;-76
2021/03/12 09:05:54;;;;;;;6.10;1.03;;;7.80;72.60;;;;;;6243566;23;20050;-75
2021/03/12 09:08:27;;;;;;;4.93;0.63;;;7.80;72.80;;;;;;6246024;23;20434;-75
2021/03/12 09:10:54;;;;;;;6.57;0.70;;;7.80;72.50;;;;;;6243535;23;20301;-76
2021/03/12 09:13:25;;;;;;;4.90;0.87;;;7.90;71.20;;;;;;6246694;22;20012;-76
2021/03/12 09:15:52;;;;;;;4.47;0.70;;;8.00;68.70;;;;;;6245143;23;20211;-75
2021/03/12 09:18:27;;;;;;;5.33;0.70;;;8.00;68.60;;;;;;6241887;23;20087;-76
2021/03/12 09:21:00;;;;;;;4.83;0.90;;;8.00;68.80;;;;;;6244561;23;20000;-76
2021/03/12 09:23:39;;;;;;;3.00;0.50;;;8.00;69.70;;;;;;6246472;22;20431;-77
2021/03/12 09:26:26;;;;;;;5.67;0.93;;;8.10;68.00;;;;;;6245669;23;20004;-76
2021/03/12 09:28:59;;;;;;;5.70;0.80;;;8.10;66.00;;;;;;6239414;23;20058;-78
2021/03/12 09:31:30;;;;;;;7.03;0.60;;;8.20;66.70;;;;;;6245166;23;20000;-76
2021/03/12 09:33:57;;;;;;;6.30;1.07;;;8.30;64.70;;;;;;6244198;23;20008;-75
2021/03/12 09:36:35;;;;;;;6.65;0.75;;;8.30;62.50;;;;;;6245551;22;20005;-75
2021/03/12 09:39:13;;;;;;;5.87;0.50;;;8.50;61.90;;;;;;6245841;22;20088;-75
2021/03/12 09:41:41;;;;;;;4.47;0.80;;;8.60;62.40;;;;;;6243370;23;20000;-77
2021/03/12 09:44:17;;;;;;;5.63;0.90;;;8.70;60.60;;;;;;6244058;23;20008;-76
2021/03/12 09:47:07;;;;;;;7.17;1.00;;;9.00;60.10;;;;;;6244126;23;19996;-77
2021/03/12 09:49:38;;;;;;;9.10;0.85;;;9.00;59.20;;;;;;6223872;23;20004;-77
2021/03/12 09:52:16;;;;;;;9.85;1.30;;;9.00;57.40;;;;;;6244511;23;20423;-76
2021/03/12 09:54:43;;;;;;;6.00;0.80;;;9.10;55.60;;;;;;6244279;23;20043;-77
2021/03/12 09:57:11;;;;;;;6.47;0.52;;;9.30;54.90;;;;;;6244969;23;20004;-76
2021/03/12 09:59:39;;;;;;;5.97;0.90;;;9.40;55.30;;;;;;6245122;22;20003;-76
2021/03/12 10:02:10;;;;;;;4.15;0.70;;;9.50;54.40;;;;;;6244852;23;20028;-76
2021/03/12 10:04:41;;;;;;;6.13;0.43;;;9.60;53.50;;;;;;6244540;22;20008;-75
2021/03/12 10:07:11;;;;;;;5.28;0.50;;;9.60;52.40;;;;;;6249341;22;20430;-74
2021/03/12 10:09:42;;;;;;;5.70;0.70;;;9.60;53.60;;;;;;6248317;22;20002;-75
2021/03/12 10:12:25;;;;;;;3.42;0.60;;;9.70;53.00;;;;;;6249593;22;20014;-75
2021/03/12 10:15:08;;;;;;;6.25;0.73;;;9.80;53.40;;;;;;6248402;22;20007;-76
2021/03/12 10:17:40;;;;;;;6.28;0.90;;;9.90;53.30;;;;;;6248142;22;20011;-75
2021/03/12 10:20:20;;;;;;;8.10;1.05;;;10.00;54.00;;;;;;6249019;22;20007;-76
2021/03/12 10:22:55;;;;;;;5.68;0.60;;;10.10;53.50;;;;;;6248402;22;20000;-75
2021/03/12 10:25:36;;;;;;;6.32;0.82;;;10.00;52.60;;;;;;6276812;22;19996;-75
2021/03/12 10:28:10;;;;;;;3.70;0.53;;;9.90;52.90;;;;;;6248442;22;20031;-76
2021/03/12 10:30:38;;;;;;;5.18;0.57;;;9.80;53.10;;;;;;6248545;22;20231;-76
2021/03/12 10:33:06;;;;;;;5.38;0.80;;;10.00;53.80;;;;;;6249209;22;20030;-77
2021/03/12 10:35:45;;;;;;;5.10;0.68;;;10.00;53.20;;;;;;6248914;22;20106;-83
2021/03/12 10:38:18;;;;;;;6.53;0.60;;;10.00;53.10;;;;;;6276301;22;20000;-76
2021/03/12 10:40:53;;;;;;;2.88;0.65;;;10.00;53.30;;;;;;6247913;22;20000;-77
2021/03/12 10:43:20;;;;;;;4.93;0.52;;;10.10;53.90;;;;;;6247698;22;20366;-76
2021/03/12 10:45:52;;;;;;;4.95;0.70;;;10.10;53.90;;;;;;6246877;22;20004;-76
2021/03/12 10:48:20;;;;;;;6.72;1.25;;;10.00;53.40;;;;;;6248310;22;20133;-75
2021/03/12 10:50:55;;;;;;;3.85;0.73;;;10.00;54.20;;;;;;6246991;22;20003;-76
2021/03/12 10:53:21;;;;;;;3.72;0.70;;;10.10;54.40;;;;;;6249065;22;20059;-76
2021/03/12 10:55:52;;;;;;;3.88;0.55;;;10.10;52.90;;;;;;6274783;22;20441;-77
2021/03/12 10:58:29;;;;;;;5.15;0.60;;;10.10;53.60;;;;;;6248991;22;20003;-77
2021/03/12 11:01:22;;;;;;;6.35;0.98;;;10.00;54.30;;;;;;6247978;22;19991;-76
2021/03/12 11:03:49;;;;;;;2.88;0.43;;;10.20;53.40;;;;;;6248495;22;20094;-77
2021/03/12 11:06:18;;;;;;;4.10;0.70;;;10.30;53.90;;;;;;6276042;22;20054;-75
2021/03/12 11:08:44;;;;;;;4.00;1.10;;;10.40;53.80;;;;;;6275255;22;19996;-76
2021/03/12 11:11:13;;;;;;;4.25;0.70;;;10.40;51.40;;;;;;6248902;22;20042;-76
2021/03/12 11:13:40;;;;;;;6.00;0.80;;;10.40;51.40;;;;;;6248086;22;20090;-76
2021/03/12 11:16:07;;;;;;;10.13;0.93;;;10.50;50.80;;;;;;6275586;22;20085;-76
2021/03/12 11:18:33;;;;;;;5.85;0.70;;;10.50;51.20;;;;;;6275832;22;20032;-81
2021/03/12 11:21:00;;;;;;;8.13;0.70;;;10.30;51.90;;;;;;6248376;22;20201;-76
2021/03/12 11:23:26;;;;;;;7.97;0.90;;;10.30;51.20;;;;;;6248759;22;19999;-77
2021/03/12 11:25:55;;;;;;;3.47;0.82;;;10.30;51.80;;;;;;6247539;22;20003;-77
2021/03/12 11:28:22;;;;;;;5.25;0.73;;;10.40;51.70;;;;;;6248292;22;20033;-75
2021/03/12 11:30:48;;;;;;;7.07;1.10;;;10.40;51.50;;;;;;6248052;22;19999;-76
2021/03/12 11:33:14;;;;;;;6.43;0.80;;;10.40;51.50;;;;;;6275943;22;19999;-76
2021/03/12 11:35:40;;;;;;;6.47;0.90;;;10.40;51.60;;;;;;6249420;22;20004;-77
2021/03/12 11:38:06;;;;;;;4.63;0.65;;;10.30;51.50;;;;;;6249638;22;20078;-77
2021/03/12 11:40:33;;;;;;;3.75;0.63;;;10.50;51.80;;;;;;6249045;22;20020;-77
2021/03/12 11:42:59;;;;;;;7.07;0.73;;;10.60;51.30;;;;;;6276339;22;20016;-77
2021/03/12 11:45:25;;;;;;;4.30;0.60;;;10.70;51.00;;;;;;6275650;22;20000;-78
2021/03/12 11:47:53;;;;;;;4.45;0.52;;;10.70;50.90;;;;;;6247603;22;20098;-77
2021/03/12 11:50:19;;;;;;;5.97;0.80;;;10.50;51.20;;;;;;6249275;22;20002;-79
2021/03/12 11:52:48;;;;;;;6.65;0.75;;;10.30;50.70;;;;;;6248612;22;20079;-76
2021/03/12 11:55:14;;;;;;;7.65;0.73;;;10.30;51.20;;;;;;6249461;22;20008;-78
2021/03/12 11:57:40;;;;;;;3.53;0.70;;;10.40;52.10;;;;;;6250818;22;20031;-77
2021/03/12 12:00:11;;;;;;;5.90;0.70;;;10.60;51.20;;;;;;6251834;22;19996;-79
2021/03/12 12:02:36;;;;;;;4.13;0.93;;;10.70;48.80;;;;;;6250898;22;20431;-78
2021/03/12 12:05:03;;;;;;;8.38;1.00;;;10.70;49.20;;;;;;6251681;22;20046;-79
2021/03/12 12:07:29;;;;;;;7.10;0.65;;;10.90;49.60;;;;;;6278486;22;20075;-79
2021/03/12 12:09:55;;;;;;;7.05;1.05;;;11.00;49.80;;;;;;6250849;22;20034;-78
2021/03/12 12:12:21;;;;;;;7.65;0.75;;;11.00;48.40;;;;;;6251565;22;20418;-77
2021/03/12 12:14:46;;;;;;;5.07;0.75;;;11.00;49.90;;;;;;6277341;22;20015;-78
2021/03/12 12:17:13;;;;;;;5.65;0.70;;;10.90;50.00;;;;;;6251479;22;20438;-77
2021/03/12 12:19:40;;;;;;;4.82;0.73;;;10.90;50.70;;;;;;6250467;22;20046;-78
2021/03/12 12:22:07;;;;;;;2.25;0.52;;;11.00;49.90;;;;;;6251487;22;20007;-80
2021/03/12 12:24:33;;;;;;;4.53;0.70;;;10.90;50.00;;;;;;6251793;22;20430;-80
2021/03/12 12:26:59;;;;;;;8.02;1.70;;;11.00;50.30;;;;;;6278724;22;20000;-79
2021/03/12 12:29:24;;;;;;;5.05;0.80;;;11.00;49.40;;;;;;6251526;22;20010;-80
2021/03/12 12:31:50;;;;;;;7.25;1.08;;;11.10;49.70;;;;;;6250831;22;20327;-81
2021/03/12 12:34:16;;;;;;;4.38;0.80;;;11.30;48.20;;;;;;6278245;22;20010;-80
2021/03/12 12:36:41;;;;;;;5.18;0.90;;;11.50;50.00;;;;;;6250370;22;20007;-79
2021/03/12 12:39:08;;;;;;;6.80;0.90;;;11.80;48.30;;;;;;6251073;22;20447;-80
2021/03/12 12:41:37;;;;;;;7.32;0.68;;;11.70;47.40;;;;;;6277461;22;19996;-86
2021/03/12 12:44:03;;;;;;;4.72;0.80;;;11.60;48.40;;;;;;6278771;22;20087;-82
2021/03/12 12:46:29;;;;;;;3.53;0.70;;;11.80;48.10;;;;;;6251069;22;20012;-79
2021/03/12 12:49:13;;;;;;;5.03;0.63;;;12.00;47.30;;;;;;6250219;22;20499;-80
2021/03/12 12:51:38;;;;;;;6.82;0.98;;;12.30;45.80;;;;;;6250853;22;20057;-82
2021/03/12 12:54:05;;;;;;;3.97;0.65;;;12.70;46.70;;;;;;6278273;22;20086;-80
2021/03/12 12:56:31;;;;;;;5.38;0.90;;;13.00;44.90;;;;;;6251321;22;19996;-82
2021/03/12 12:58:58;;;;;;;6.70;0.88;;;13.20;45.00;;;;;;6250882;22;19992;-81
2021/03/12 13:01:24;;;;;;;3.75;0.50;;;13.50;44.50;;;;;;6251572;22;20034;-81
2021/03/12 13:03:49;;;;;;;3.20;0.82;;;13.30;43.60;;;;;;6250872;22;20011;-80
2021/03/12 13:06:15;;;;;;;5.68;0.90;;;13.40;43.40;;;;;;6251148;22;20022;-81
2021/03/12 13:08:41;;;;;;;2.92;0.90;;;13.80;43.70;;;;;;6251146;22;20087;-79
2021/03/12 13:11:07;;;;;;;7.88;0.75;;;15.20;41.80;;;;;;6278295;22;19999;-81
2021/03/12 13:13:33;;;;;;;5.60;1.00;;;15.70;40.30;;;;;;6277750;22;20310;-80
2021/03/12 13:16:01;;;;;;;2.85;0.60;;;16.40;38.10;;;;;;6277665;22;20000;-79
2021/03/12 13:18:28;;;;;;;4.97;0.77;;;17.00;36.80;;;;;;6250610;22;20016;-81
2021/03/12 13:20:59;;;;;;;7.68;1.02;;;17.20;36.60;;;;;;6250469;22;20000;-78
2021/03/12 13:23:27;;;;;;;2.47;0.75;;;16.40;37.20;;;;;;6250915;22;20004;-79
2021/03/12 13:25:53;;;;;;;2.45;0.52;;;15.90;39.70;;;;;;6277337;22;19996;-80
2021/03/12 13:28:20;;;;;;;2.92;0.68;;;14.90;40.40;;;;;;6251190;22;20004;-80
2021/03/12 13:30:47;;;;;;;6.10;0.98;;;14.30;41.40;;;;;;6250625;22;20003;-79
2021/03/12 13:33:13;;;;;;;4.35;0.90;;;14.00;42.70;;;;;;6251028;22;20049;-81
2021/03/12 13:35:39;;;;;;;1.92;0.77;;;13.50;43.30;;;;;;6249573;22;20008;-80
2021/03/12 13:38:06;;;;;;;6.10;0.60;;;13.20;44.90;;;;;;6278482;22;20075;-80
2021/03/12 13:40:33;;;;;;;7.22;0.90;;;12.80;46.00;;;;;;6278325;22;20050;-79
2021/03/12 13:43:01;;;;;;;5.72;1.23;;;13.50;45.80;;;;;;6250220;22;19999;-80
2021/03/12 13:45:32;;;;;;;6.55;0.95;;;14.80;43.50;;;;;;6249625;22;20446;-79
2021/03/12 13:47:59;;;;;;;4.63;0.90;;;15.80;41.80;;;;;;6249735;22;20787;-78
2021/03/12 13:50:28;;;;;;;3.78;0.73;;;16.20;40.60;;;;;;6250265;22;19999;-79
2021/03/12 13:52:54;;;;;;;3.30;0.73;;;16.60;40.00;;;;;;6276280;22;19991;-79
2021/03/12 13:55:20;;;;;;;2.28;0.57;;;17.20;39.60;;;;;;6250978;22;20018;-78
2021/03/12 13:57:46;;;;;;;1.85;0.60;;;17.20;37.00;;;;;;6250371;22;20082;-78
2021/03/12 14:00:12;;;;;;;2.67;0.50;;;17.20;37.40;;;;;;6251351;22;20027;-79
2021/03/12 14:02:40;;;;;;;2.45;0.70;;;17.50;37.30;;;;;;6276948;22;20066;-79
2021/03/12 14:05:07;;;;;;;4.20;0.75;;;17.70;36.20;;;;;;6250259;22;20085;-78
2021/03/12 14:07:33;;;;;;;3.60;0.55;;;17.70;36.80;;;;;;6250204;22;19996;-78
2021/03/12 14:09:59;;;;;;;4.10;0.50;;;18.60;35.00;;;;;;6276519;22;20054;-78
2021/03/12 14:12:33;;;;;;;3.33;0.40;;;18.00;35.60;;;;;;6274803;22;20079;-78
2021/03/12 14:14:59;;;;;;;3.72;0.60;;;17.40;34.70;;;;;;6247667;22;20016;-78
2021/03/12 14:17:27;;;;;;;3.72;0.57;;;16.30;37.80;;;;;;6249427;22;20087;-78
2021/03/12 14:19:58;;;;;;;3.80;0.65;;;15.70;38.90;;;;;;6276030;22;19999;-79
2021/03/12 14:22:29;;;;;;;2.70;0.60;;;15.20;39.80;;;;;;6250162;22;20003;-82
2021/03/12 14:25:04;;;;;;;2.00;0.50;;;14.60;40.60;;;;;;6248772;22;20015;-85
2021/03/12 14:28:07;;;;;;;2.72;0.52;;;14.30;40.30;;;;;;6220156;23;20073;-85
2021/03/12 14:30:41;;;;;;;2.80;0.47;;;14.00;41.30;;;;;;6250949;22;20441;-84
2021/03/12 14:36:46;;;;;;;2.60;0.50;;;13.50;41.00;;;;;;6255383;22;20018;-83
2021/03/12 14:39:15;;;;;;;2.08;0.70;;;13.40;41.30;;;;;;6249898;22;20070;-83
2021/03/12 14:41:49;;;;;;;3.17;0.77;;;13.40;42.40;;;;;;6249217;22;20046;-83
2021/03/12 14:44:16;;;;;;;3.97;0.70;;;13.50;41.80;;;;;;6249903;22;20079;-83
2021/03/12 14:46:42;;;;;;;4.68;0.50;;;13.50;41.70;;;;;;6249503;22;20003;-81
2021/03/12 14:49:08;;;;;;;5.32;0.57;;;13.40;41.30;;;;;;6249798;22;20078;-82
2021/03/12 14:51:34;;;;;;;3.63;1.02;;;13.30;41.00;;;;;;6249699;22;20000;-82
2021/03/12 14:54:00;;;;;;;4.25;0.90;;;13.30;40.90;;;;;;6249387;22;20426;-82
2021/03/12 14:56:26;;;;;;;5.43;0.70;;;13.00;41.50;;;;;;6250537;22;19995;-83
2021/03/12 14:58:52;;;;;;;3.13;0.90;;;12.90;42.60;;;;;;6249813;22;20003;-82
2021/03/12 15:01:18;;;;;;;3.13;0.45;;;13.00;42.50;;;;;;6250231;22;20046;-82
2021/03/12 15:03:44;;;;;;;5.20;0.70;;;13.10;42.50;;;;;;6249621;22;20007;-83
2021/03/12 15:06:09;;;;;;;3.85;0.57;;;13.20;42.70;;;;;;6250438;22;20042;-83
2021/03/12 15:08:35;;;;;;;3.55;0.60;;;13.00;42.90;;;;;;6250344;22;20308;-85
2021/03/12 15:11:04;;;;;;;5.07;0.70;;;12.90;43.20;;;;;;6250521;22;20308;-83
2021/03/12 15:13:29;;;;;;;2.35;0.98;;;12.60;46.00;;;;;;6249906;22;20006;-83
2021/03/12 15:15:55;;;;;;;4.07;0.68;;;12.40;47.50;;;;;;6249713;22;20334;-83
2021/03/12 15:18:21;;;;;;;6.60;0.80;;;12.30;48.50;;;;;;6250217;22;20014;-83
2021/03/12 15:20:47;;;;;;;4.40;0.95;;;12.20;48.80;;;;;;6249612;22;20003;-83
2021/03/12 15:23:12;;;;;;;6.10;0.40;;;12.00;49.20;;;;;;6250248;22;19999;-82
2021/03/12 15:25:38;;;;;;;3.22;0.50;;;11.90;49.50;;;;;;6249645;22;20000;-83
2021/03/12 15:28:05;;;;;;;1.83;0.65;;;11.90;49.90;;;;;;6250251;22;20478;-82
2021/03/12 15:30:32;;;;;;;3.85;0.75;;;12.00;49.70;;;;;;6250305;22;20006;-82
2021/03/12 15:32:58;;;;;;;4.70;0.75;;;12.00;49.80;;;;;;6276295;22;20449;-82
2021/03/12 15:35:25;;;;;;;5.00;0.75;;;11.90;50.30;;;;;;6250056;22;20004;-80
2021/03/12 15:37:54;;;;;;;4.45;0.82;;;11.90;50.40;;;;;;6276123;22;19999;-82
2021/03/12 15:40:21;;;;;;;5.65;0.70;;;11.80;51.30;;;;;;6250018;22;20000;-82
2021/03/12 15:42:48;;;;;;;2.42;0.63;;;11.80;51.80;;;;;;6249320;22;20000;-83
2021/03/12 15:45:14;;;;;;;1.13;0.45;;;11.80;52.20;;;;;;6249904;22;20008;-82
2021/03/12 15:47:40;;;;;;;4.10;0.45;;;11.80;52.10;;;;;;6249124;22;20091;-83
2021/03/12 15:50:07;;;;;;;1.70;0.40;;;11.80;52.30;;;;;;6248700;22;20000;-82
2021/03/12 15:52:35;;;;;;;4.70;0.57;;;11.60;52.40;;;;;;6249383;22;20079;-84
2021/03/12 15:55:01;;;;;;;3.53;0.60;;;11.60;52.80;;;;;;6249673;22;20015;-85
2021/03/12 15:57:27;;;;;;;2.15;0.52;;;11.50;52.30;;;;;;6250601;22;20049;-86
2021/03/12 15:59:54;;;;;;;3.00;0.55;;;11.50;52.40;;;;;;6249372;22;20002;-82
2021/03/12 16:02:20;;;;;;;4.40;0.60;;;11.40;52.60;;;;;;6250049;22;20331;-83
2021/03/12 16:04:48;;;;;;;2.58;0.50;;;11.50;52.50;;;;;;6249113;22;20056;-83
2021/03/12 16:07:14;;;;;;;2.65;0.47;;;11.50;52.60;;;;;;6249945;22;20003;-83
2021/03/12 16:09:40;;;;;;;7.15;0.82;;;11.50;52.40;;;;;;6276361;22;20004;-84
2021/03/12 16:12:06;;;;;;;2.78;0.50;;;11.50;52.20;;;;;;6249967;22;20419;-83
2021/03/12 16:14:31;;;;;;;2.95;0.80;;;11.60;52.60;;;;;;6276757;22;20410;-82
2021/03/12 16:16:57;;;;;;;3.17;0.70;;;11.70;52.00;;;;;;6276265;22;20012;-83
2021/03/12 16:19:23;;;;;;;2.45;0.63;;;11.50;51.90;;;;;;6249946;22;20007;-83
2021/03/12 16:21:48;;;;;;;5.18;0.70;;;11.50;52.40;;;;;;6249608;22;20000;-82
2021/03/12 16:24:16;;;;;;;2.58;0.57;;;11.40;52.90;;;;;;6249915;22;20004;-78
2021/03/12 16:26:44;;;;;;;2.25;0.50;;;11.30;53.20;;;;;;6247709;22;20003;-80
2021/03/12 16:29:16;;;;;;;4.38;0.82;;;11.20;53.50;;;;;;6249707;22;20011;-81
2021/03/12 16:31:42;;;;;;;3.45;0.57;;;11.20;53.80;;;;;;6248657;22;19996;-77
2021/03/12 16:34:08;;;;;;;3.47;0.60;;;11.20;54.60;;;;;;6248976;22;20019;-77
2021/03/12 16:36:34;;;;;;;6.35;0.75;;;11.20;54.60;;;;;;6249187;22;20075;-79
2021/03/12 16:39:00;;;;;;;26.65;9.63;;;11.10;54.30;;;;;;6248362;22;20035;-79
2021/03/12 16:41:26;;;;;;;5.30;2.05;;;11.00;55.10;;;;;;6277023;22;20054;-79
2021/03/12 16:43:51;;;;;;;4.60;1.20;;;10.90;54.90;;;;;;6251037;22;20003;-78
2021/03/12 16:46:17;;;;;;;4.80;1.10;;;10.80;55.00;;;;;;6278254;22;20370;-79
2021/03/12 16:48:43;;;;;;;5.20;0.93;;;10.80;54.80;;;;;;6250476;22;20071;-80
2021/03/12 16:51:09;;;;;;;5.05;1.00;;;10.70;55.00;;;;;;6252051;22;20004;-80
2021/03/12 16:53:35;;;;;;;2.63;0.70;;;10.60;55.50;;;;;;6251347;22;20026;-76
2021/03/12 16:56:01;;;;;;;3.55;0.65;;;10.60;56.00;;;;;;6277413;22;19999;-77
2021/03/12 16:58:27;;;;;;;4.43;0.60;;;10.50;56.10;;;;;;6251112;22;20370;-79
2021/03/12 17:00:53;;;;;;;4.45;0.88;;;10.50;56.40;;;;;;6250567;22;19999;-79
2021/03/12 17:03:18;;;;;;;3.65;0.70;;;10.40;56.60;;;;;;6251161;22;20053;-78
2021/03/12 17:05:45;;;;;;;4.78;0.50;;;10.40;57.10;;;;;;6244640;23;20015;-77
2021/03/12 17:08:11;;;;;;;4.25;0.57;;;10.30;57.50;;;;;;6246471;22;20023;-76
2021/03/12 17:10:37;;;;;;;2.20;0.40;;;10.20;58.20;;;;;;6245087;23;20005;-78
2021/03/12 17:13:03;;;;;;;4.80;0.60;;;10.20;58.00;;;;;;6246783;23;20003;-77
2021/03/12 17:15:29;;;;;;;1.95;0.60;;;10.20;58.40;;;;;;6245098;23;20008;-79
2021/03/12 17:17:55;;;;;;;2.40;0.57;;;10.10;58.70;;;;;;6246691;22;20079;-76
2021/03/12 17:20:21;;;;;;;35.92;16.15;;;10.10;59.20;;;;;;6246318;23;20087;-81
2021/03/12 17:22:47;;;;;;;29.50;15.60;;;10.00;59.40;;;;;;6247137;22;20020;-79
2021/03/12 17:25:13;;;;;;;5.78;2.13;;;10.00;59.70;;;;;;6245688;23;20378;-76
2021/03/12 17:27:40;;;;;;;3.55;1.25;;;10.00;60.10;;;;;;6244558;23;20026;-77
2021/03/12 17:30:09;;;;;;;4.35;0.80;;;9.90;60.30;;;;;;6245140;23;20004;-77
2021/03/12 17:32:34;;;;;;;3.15;0.65;;;9.90;60.60;;;;;;6245182;23;20032;-77
2021/03/12 17:35:00;;;;;;;2.78;1.10;;;9.90;60.70;;;;;;6244556;23;20012;-77
2021/03/12 17:37:26;;;;;;;4.05;1.00;;;9.90;60.70;;;;;;6246788;22;20364;-78
2021/03/12 17:39:52;;;;;;;4.20;0.98;;;9.80;60.80;;;;;;6244745;23;20004;-78
2021/03/12 17:42:17;;;;;;;4.78;0.80;;;9.80;60.90;;;;;;6244935;23;20023;-78
2021/03/12 17:44:43;;;;;;;4.20;0.68;;;9.80;61.00;;;;;;6244668;23;20000;-79
2021/03/12 17:47:09;;;;;;;2.00;0.63;;;9.80;61.30;;;;;;6245265;23;20012;-78
2021/03/12 17:49:34;;;;;;;2.08;0.70;;;9.80;61.20;;;;;;6245355;23;20036;-79
2021/03/12 17:52:00;;;;;;;4.05;0.60;;;9.70;61.20;;;;;;6246080;23;20024;-79
2021/03/12 17:54:26;;;;;;;3.38;0.60;;;9.70;61.20;;;;;;6245233;23;20005;-79
2021/03/12 17:56:52;;;;;;;1.48;0.60;;;9.70;61.60;;;;;;6245069;23;20083;-78
2021/03/12 17:59:18;;;;;;;4.65;0.88;;;9.70;61.30;;;;;;6246269;23;20054;-78
2021/03/12 18:01:44;;;;;;;4.82;0.90;;;9.70;61.30;;;;;;6245003;23;20000;-77
2021/03/12 18:04:09;;;;;;;2.88;0.70;;;9.70;61.60;;;;;;6245640;23;20349;-79
2021/03/12 18:06:35;;;;;;;2.90;0.50;;;9.70;61.60;;;;;;6245042;23;20095;-79
2021/03/12 18:09:01;;;;;;;4.07;0.75;;;9.80;61.80;;;;;;6245298;23;20054;-79